sensor_id;sensor_type;location;lat;lon;timestamp;P1;durP1;ratioP1;P2;durP2;ratioP2
7529;SDS011;3806;52.270;10.544;2023-03-01T00:00:18;13.38;;;6.78;;
7529;SDS011;3806;52.270;10.544;2023-03-01T00:02:44;10.25;;;6.40;;
7529;SDS011;3806;52.270;10.544;2023-03-01T00:05:09;11.98;;;6.68;;
7529;SDS011;3806;52.270;10.544;2023-03-01T00:07:35;11.27;;;6.00;;
7529;SDS011;3806;52.270;10.544;2023-03-01T00:10:00;11.43;;;6.28;;
7529;SDS011;3806;52.270;10.544;2023-03-01T00:12:26;11.05;;;6.45;;
7529;SDS011;3806;52.270;10.544;2023-03-01T00:14:52;11.00;;;6.50;;
7529;SDS011;3806;52.270;10.544;2023-03-01T00:17:18;8.15;;;5.25;;
7529;SDS011;3806;52.270;10.544;2023-03-01T00:19:43;11.35;;;5.95;;
7529;SDS011;3806;52.270;10.544;2023-03-01T00:22:09;10.98;;;6.35;;
7529;SDS011;3806;52.270;10.544;2023-03-01T00:24:34;12.82;;;6.28;;
7529;SDS011;3806;52.270;10.544;2023-03-01T00:27:00;10.30;;;6.30;;
7529;SDS011;3806;52.270;10.544;2023-03-01T00:29:25;9.73;;;5.97;;
7529;SDS011;3806;52.270;10.544;2023-03-01T00:31:51;9.98;;;5.53;;
7529;SDS011;3806;52.270;10.544;2023-03-01T00:34:17;10.18;;;6.25;;
7529;SDS011;3806;52.270;10.544;2023-03-01T00:36:42;9.73;;;5.93;;
7529;SDS011;3806;52.270;10.544;2023-03-01T00:39:13;10.40;;;5.32;;
7529;SDS011;3806;52.270;10.544;2023-03-01T00:41:40;8.02;;;4.68;;
7529;SDS011;3806;52.270;10.544;2023-03-01T00:44:06;12.52;;;5.95;;
7529;SDS011;3806;52.270;10.544;2023-03-01T00:46:31;10.93;;;6.30;;
7529;SDS011;3806;52.270;10.544;2023-03-01T00:48:57;8.43;;;4.85;;
7529;SDS011;3806;52.270;10.544;2023-03-01T00:51:24;9.75;;;5.60;;
7529;SDS011;3806;52.270;10.544;2023-03-01T00:53:52;8.70;;;5.75;;
7529;SDS011;3806;52.270;10.544;2023-03-01T00:56:20;8.77;;;5.07;;
7529;SDS011;3806;52.270;10.544;2023-03-01T00:58:46;11.35;;;5.03;;
7529;SDS011;3806;52.270;10.544;2023-03-01T01:01:12;10.50;;;5.22;;
7529;SDS011;3806;52.270;10.544;2023-03-01T01:06:15;10.95;;;5.18;;
7529;SDS011;3806;52.270;10.544;2023-03-01T01:08:45;10.48;;;5.70;;
7529;SDS011;3806;52.270;10.544;2023-03-01T01:11:11;10.35;;;5.20;;
7529;SDS011;3806;52.270;10.544;2023-03-01T01:13:37;11.05;;;5.57;;
7529;SDS011;3806;52.270;10.544;2023-03-01T01:16:03;12.23;;;5.65;;
7529;SDS011;3806;52.270;10.544;2023-03-01T01:18:29;8.98;;;5.78;;
7529;SDS011;3806;52.270;10.544;2023-03-01T01:20:55;8.88;;;5.30;;
7529;SDS011;3806;52.270;10.544;2023-03-01T01:23:20;10.63;;;6.22;;
7529;SDS011;3806;52.270;10.544;2023-03-01T01:25:46;7.97;;;5.47;;
7529;SDS011;3806;52.270;10.544;2023-03-01T01:28:11;7.90;;;4.88;;
7529;SDS011;3806;52.270;10.544;2023-03-01T01:30:37;13.77;;;5.82;;
7529;SDS011;3806;52.270;10.544;2023-03-01T01:33:02;8.60;;;5.72;;
7529;SDS011;3806;52.270;10.544;2023-03-01T01:35:28;8.57;;;3.88;;
7529;SDS011;3806;52.270;10.544;2023-03-01T01:37:54;8.75;;;4.95;;
7529;SDS011;3806;52.270;10.544;2023-03-01T01:40:21;10.57;;;5.25;;
7529;SDS011;3806;52.270;10.544;2023-03-01T01:42:47;10.98;;;5.63;;
7529;SDS011;3806;52.270;10.544;2023-03-01T01:47:57;9.48;;;4.93;;
7529;SDS011;3806;52.270;10.544;2023-03-01T01:50:27;8.60;;;5.57;;
7529;SDS011;3806;52.270;10.544;2023-03-01T01:53:02;10.30;;;6.18;;
7529;SDS011;3806;52.270;10.544;2023-03-01T01:55:31;10.30;;;4.65;;
7529;SDS011;3806;52.270;10.544;2023-03-01T01:57:58;8.77;;;5.68;;
7529;SDS011;3806;52.270;10.544;2023-03-01T02:00:27;9.45;;;5.13;;
7529;SDS011;3806;52.270;10.544;2023-03-01T02:02:55;8.35;;;5.00;;
7529;SDS011;3806;52.270;10.544;2023-03-01T02:05:25;8.15;;;5.53;;
7529;SDS011;3806;52.270;10.544;2023-03-01T02:07:57;10.13;;;5.95;;
7529;SDS011;3806;52.270;10.544;2023-03-01T02:10:24;8.57;;;5.13;;
7529;SDS011;3806;52.270;10.544;2023-03-01T02:12:50;11.52;;;5.57;;
7529;SDS011;3806;52.270;10.544;2023-03-01T02:15:17;12.00;;;5.95;;
7529;SDS011;3806;52.270;10.544;2023-03-01T02:17:42;15.73;;;5.80;;
7529;SDS011;3806;52.270;10.544;2023-03-01T02:23:00;12.73;;;5.65;;
7529;SDS011;3806;52.270;10.544;2023-03-01T02:30:41;7.05;;;4.82;;
7529;SDS011;3806;52.270;10.544;2023-03-01T02:33:28;9.13;;;5.35;;
7529;SDS011;3806;52.270;10.544;2023-03-01T02:36:00;10.32;;;5.18;;
7529;SDS011;3806;52.270;10.544;2023-03-01T02:38:29;8.65;;;5.30;;
7529;SDS011;3806;52.270;10.544;2023-03-01T02:40:56;13.95;;;5.15;;
7529;SDS011;3806;52.270;10.544;2023-03-01T02:43:22;14.00;;;8.00;;
7529;SDS011;3806;52.270;10.544;2023-03-01T02:45:56;11.05;;;5.35;;
7529;SDS011;3806;52.270;10.544;2023-03-01T02:48:23;9.65;;;5.90;;
7529;SDS011;3806;52.270;10.544;2023-03-01T02:53:31;7.63;;;6.35;;
7529;SDS011;3806;52.270;10.544;2023-03-01T02:55:59;9.05;;;5.05;;
7529;SDS011;3806;52.270;10.544;2023-03-01T02:58:26;9.30;;;4.43;;
7529;SDS011;3806;52.270;10.544;2023-03-01T03:00:51;8.93;;;5.65;;
7529;SDS011;3806;52.270;10.544;2023-03-01T03:03:17;6.70;;;4.47;;
7529;SDS011;3806;52.270;10.544;2023-03-01T03:05:45;7.32;;;4.38;;
7529;SDS011;3806;52.270;10.544;2023-03-01T03:08:12;7.93;;;4.95;;
7529;SDS011;3806;52.270;10.544;2023-03-01T03:10:39;9.25;;;5.38;;
7529;SDS011;3806;52.270;10.544;2023-03-01T03:13:06;6.82;;;5.00;;
7529;SDS011;3806;52.270;10.544;2023-03-01T03:15:37;7.10;;;4.43;;
7529;SDS011;3806;52.270;10.544;2023-03-01T03:18:04;6.47;;;4.03;;
7529;SDS011;3806;52.270;10.544;2023-03-01T03:20:32;9.90;;;5.28;;
7529;SDS011;3806;52.270;10.544;2023-03-01T03:22:58;8.40;;;5.20;;
7529;SDS011;3806;52.270;10.544;2023-03-01T03:25:24;9.57;;;5.13;;
7529;SDS011;3806;52.270;10.544;2023-03-01T03:27:51;9.88;;;4.95;;
7529;SDS011;3806;52.270;10.544;2023-03-01T03:30:32;8.25;;;5.07;;
7529;SDS011;3806;52.270;10.544;2023-03-01T03:32:58;8.70;;;4.88;;
7529;SDS011;3806;52.270;10.544;2023-03-01T03:35:28;8.80;;;4.50;;
7529;SDS011;3806;52.270;10.544;2023-03-01T03:37:56;7.80;;;4.78;;
7529;SDS011;3806;52.270;10.544;2023-03-01T03:40:36;8.15;;;5.05;;
7529;SDS011;3806;52.270;10.544;2023-03-01T03:43:04;6.55;;;5.05;;
7529;SDS011;3806;52.270;10.544;2023-03-01T03:45:31;8.98;;;4.88;;
7529;SDS011;3806;52.270;10.544;2023-03-01T03:47:58;10.68;;;4.85;;
7529;SDS011;3806;52.270;10.544;2023-03-01T03:50:25;8.25;;;4.13;;
7529;SDS011;3806;52.270;10.544;2023-03-01T03:52:50;9.50;;;4.80;;
7529;SDS011;3806;52.270;10.544;2023-03-01T03:55:16;7.95;;;4.88;;
7529;SDS011;3806;52.270;10.544;2023-03-01T03:57:44;8.07;;;5.13;;
7529;SDS011;3806;52.270;10.544;2023-03-01T04:00:17;9.35;;;4.57;;
7529;SDS011;3806;52.270;10.544;2023-03-01T04:02:44;8.35;;;5.05;;
7529;SDS011;3806;52.270;10.544;2023-03-01T04:05:12;8.50;;;5.47;;
7529;SDS011;3806;52.270;10.544;2023-03-01T04:07:39;7.28;;;4.85;;
7529;SDS011;3806;52.270;10.544;2023-03-01T04:10:06;8.50;;;4.82;;
7529;SDS011;3806;52.270;10.544;2023-03-01T04:12:37;7.70;;;4.85;;
7529;SDS011;3806;52.270;10.544;2023-03-01T04:15:03;8.15;;;5.25;;
7529;SDS011;3806;52.270;10.544;2023-03-01T04:17:37;10.40;;;4.38;;
7529;SDS011;3806;52.270;10.544;2023-03-01T04:20:14;9.55;;;4.13;;
7529;SDS011;3806;52.270;10.544;2023-03-01T04:22:42;8.20;;;4.68;;
7529;SDS011;3806;52.270;10.544;2023-03-01T04:25:11;9.43;;;5.25;;
7529;SDS011;3806;52.270;10.544;2023-03-01T04:27:39;6.88;;;4.63;;
7529;SDS011;3806;52.270;10.544;2023-03-01T04:30:05;7.63;;;5.15;;
7529;SDS011;3806;52.270;10.544;2023-03-01T04:32:31;8.65;;;4.72;;
7529;SDS011;3806;52.270;10.544;2023-03-01T04:34:57;7.22;;;4.28;;
7529;SDS011;3806;52.270;10.544;2023-03-01T04:37:22;10.00;;;5.03;;
7529;SDS011;3806;52.270;10.544;2023-03-01T04:39:49;8.30;;;5.13;;
7529;SDS011;3806;52.270;10.544;2023-03-01T04:42:14;7.32;;;4.25;;
7529;SDS011;3806;52.270;10.544;2023-03-01T04:44:41;9.13;;;6.03;;
7529;SDS011;3806;52.270;10.544;2023-03-01T04:47:07;7.18;;;5.15;;
7529;SDS011;3806;52.270;10.544;2023-03-01T04:49:33;8.43;;;5.05;;
7529;SDS011;3806;52.270;10.544;2023-03-01T04:51:58;7.03;;;5.15;;
7529;SDS011;3806;52.270;10.544;2023-03-01T04:54:26;7.15;;;5.13;;
7529;SDS011;3806;52.270;10.544;2023-03-01T04:56:55;7.47;;;4.43;;
7529;SDS011;3806;52.270;10.544;2023-03-01T04:59:21;8.63;;;4.68;;
7529;SDS011;3806;52.270;10.544;2023-03-01T05:01:47;8.25;;;4.88;;
7529;SDS011;3806;52.270;10.544;2023-03-01T05:04:13;10.35;;;4.20;;
7529;SDS011;3806;52.270;10.544;2023-03-01T05:06:39;6.65;;;4.15;;
7529;SDS011;3806;52.270;10.544;2023-03-01T05:09:05;10.38;;;5.15;;
7529;SDS011;3806;52.270;10.544;2023-03-01T05:11:30;5.45;;;4.03;;
7529;SDS011;3806;52.270;10.544;2023-03-01T05:14:00;10.98;;;4.90;;
7529;SDS011;3806;52.270;10.544;2023-03-01T05:16:26;8.70;;;4.22;;
7529;SDS011;3806;52.270;10.544;2023-03-01T05:18:52;10.85;;;4.55;;
7529;SDS011;3806;52.270;10.544;2023-03-01T05:21:20;8.80;;;5.15;;
7529;SDS011;3806;52.270;10.544;2023-03-01T05:23:46;7.38;;;5.13;;
7529;SDS011;3806;52.270;10.544;2023-03-01T05:26:11;4.72;;;3.60;;
7529;SDS011;3806;52.270;10.544;2023-03-01T05:28:37;7.00;;;4.32;;
7529;SDS011;3806;52.270;10.544;2023-03-01T05:31:03;8.73;;;5.18;;
7529;SDS011;3806;52.270;10.544;2023-03-01T05:33:34;8.75;;;4.85;;
7529;SDS011;3806;52.270;10.544;2023-03-01T05:36:01;8.02;;;4.43;;
7529;SDS011;3806;52.270;10.544;2023-03-01T05:38:26;6.97;;;4.18;;
7529;SDS011;3806;52.270;10.544;2023-03-01T05:40:52;8.73;;;4.55;;
7529;SDS011;3806;52.270;10.544;2023-03-01T05:43:17;8.30;;;4.75;;
7529;SDS011;3806;52.270;10.544;2023-03-01T05:45:43;7.18;;;4.68;;
7529;SDS011;3806;52.270;10.544;2023-03-01T05:48:10;8.32;;;4.18;;
7529;SDS011;3806;52.270;10.544;2023-03-01T05:50:37;9.90;;;4.95;;
7529;SDS011;3806;52.270;10.544;2023-03-01T05:53:06;8.23;;;4.82;;
7529;SDS011;3806;52.270;10.544;2023-03-01T05:55:34;6.10;;;4.10;;
7529;SDS011;3806;52.270;10.544;2023-03-01T05:58:01;5.97;;;4.55;;
7529;SDS011;3806;52.270;10.544;2023-03-01T06:00:28;7.28;;;4.78;;
7529;SDS011;3806;52.270;10.544;2023-03-01T06:02:55;8.23;;;5.28;;
7529;SDS011;3806;52.270;10.544;2023-03-01T06:05:21;8.00;;;4.88;;
7529;SDS011;3806;52.270;10.544;2023-03-01T06:07:47;7.78;;;4.78;;
7529;SDS011;3806;52.270;10.544;2023-03-01T06:10:14;7.18;;;4.55;;
7529;SDS011;3806;52.270;10.544;2023-03-01T06:12:40;7.18;;;4.10;;
7529;SDS011;3806;52.270;10.544;2023-03-01T06:15:06;9.30;;;5.35;;
7529;SDS011;3806;52.270;10.544;2023-03-01T06:17:34;9.73;;;4.38;;
7529;SDS011;3806;52.270;10.544;2023-03-01T06:20:03;10.82;;;4.63;;
7529;SDS011;3806;52.270;10.544;2023-03-01T06:22:33;7.00;;;4.85;;
7529;SDS011;3806;52.270;10.544;2023-03-01T06:24:59;7.07;;;4.78;;
7529;SDS011;3806;52.270;10.544;2023-03-01T06:27:24;9.40;;;4.93;;
7529;SDS011;3806;52.270;10.544;2023-03-01T06:29:50;9.45;;;4.97;;
7529;SDS011;3806;52.270;10.544;2023-03-01T06:32:15;7.55;;;5.57;;
7529;SDS011;3806;52.270;10.544;2023-03-01T06:34:41;7.85;;;4.78;;
7529;SDS011;3806;52.270;10.544;2023-03-01T06:37:07;7.80;;;4.10;;
7529;SDS011;3806;52.270;10.544;2023-03-01T06:39:32;6.88;;;4.20;;
7529;SDS011;3806;52.270;10.544;2023-03-01T06:41:58;8.60;;;4.90;;
7529;SDS011;3806;52.270;10.544;2023-03-01T06:44:24;7.78;;;4.63;;
7529;SDS011;3806;52.270;10.544;2023-03-01T06:46:49;6.53;;;4.45;;
7529;SDS011;3806;52.270;10.544;2023-03-01T06:49:15;7.82;;;4.47;;
7529;SDS011;3806;52.270;10.544;2023-03-01T06:51:42;11.63;;;5.20;;
7529;SDS011;3806;52.270;10.544;2023-03-01T06:54:08;10.60;;;5.18;;
7529;SDS011;3806;52.270;10.544;2023-03-01T06:56:34;8.27;;;4.72;;
7529;SDS011;3806;52.270;10.544;2023-03-01T06:59:00;10.63;;;5.43;;
7529;SDS011;3806;52.270;10.544;2023-03-01T07:01:25;9.77;;;5.60;;
7529;SDS011;3806;52.270;10.544;2023-03-01T07:03:51;6.80;;;4.88;;
7529;SDS011;3806;52.270;10.544;2023-03-01T07:06:16;6.57;;;4.38;;
7529;SDS011;3806;52.270;10.544;2023-03-01T07:08:42;8.10;;;4.78;;
7529;SDS011;3806;52.270;10.544;2023-03-01T07:11:08;7.13;;;4.28;;
7529;SDS011;3806;52.270;10.544;2023-03-01T07:13:34;9.13;;;4.65;;
7529;SDS011;3806;52.270;10.544;2023-03-01T07:15:59;5.93;;;4.32;;
7529;SDS011;3806;52.270;10.544;2023-03-01T07:18:25;7.35;;;4.90;;
7529;SDS011;3806;52.270;10.544;2023-03-01T07:20:51;6.22;;;4.53;;
7529;SDS011;3806;52.270;10.544;2023-03-01T07:23:18;7.53;;;4.97;;
7529;SDS011;3806;52.270;10.544;2023-03-01T07:25:43;10.88;;;5.10;;
7529;SDS011;3806;52.270;10.544;2023-03-01T07:28:09;12.77;;;6.20;;
7529;SDS011;3806;52.270;10.544;2023-03-01T07:30:34;10.75;;;5.70;;
7529;SDS011;3806;52.270;10.544;2023-03-01T07:33:00;9.70;;;5.68;;
7529;SDS011;3806;52.270;10.544;2023-03-01T07:35:26;10.43;;;5.72;;
7529;SDS011;3806;52.270;10.544;2023-03-01T07:37:52;11.30;;;6.05;;
7529;SDS011;3806;52.270;10.544;2023-03-01T07:40:18;11.20;;;6.43;;
7529;SDS011;3806;52.270;10.544;2023-03-01T07:42:44;9.25;;;6.03;;
7529;SDS011;3806;52.270;10.544;2023-03-01T07:45:09;12.80;;;5.97;;
7529;SDS011;3806;52.270;10.544;2023-03-01T07:47:36;8.32;;;5.88;;
7529;SDS011;3806;52.270;10.544;2023-03-01T07:50:01;9.35;;;6.15;;
7529;SDS011;3806;52.270;10.544;2023-03-01T07:52:28;9.32;;;5.18;;
7529;SDS011;3806;52.270;10.544;2023-03-01T07:54:54;8.43;;;5.20;;
7529;SDS011;3806;52.270;10.544;2023-03-01T07:57:19;9.65;;;4.78;;
7529;SDS011;3806;52.270;10.544;2023-03-01T07:59:45;8.50;;;4.30;;
7529;SDS011;3806;52.270;10.544;2023-03-01T08:02:10;8.70;;;5.22;;
7529;SDS011;3806;52.270;10.544;2023-03-01T08:04:36;6.53;;;4.35;;
7529;SDS011;3806;52.270;10.544;2023-03-01T08:07:04;7.18;;;4.43;;
7529;SDS011;3806;52.270;10.544;2023-03-01T08:09:30;8.35;;;4.93;;
7529;SDS011;3806;52.270;10.544;2023-03-01T08:11:56;9.02;;;4.15;;
7529;SDS011;3806;52.270;10.544;2023-03-01T08:14:24;7.57;;;5.05;;
7529;SDS011;3806;52.270;10.544;2023-03-01T08:16:50;11.05;;;4.88;;
7529;SDS011;3806;52.270;10.544;2023-03-01T08:19:16;7.00;;;4.60;;
7529;SDS011;3806;52.270;10.544;2023-03-01T08:21:42;8.15;;;5.20;;
7529;SDS011;3806;52.270;10.544;2023-03-01T08:24:07;8.18;;;4.53;;
7529;SDS011;3806;52.270;10.544;2023-03-01T08:26:35;9.00;;;4.13;;
7529;SDS011;3806;52.270;10.544;2023-03-01T08:29:01;8.10;;;4.15;;
7529;SDS011;3806;52.270;10.544;2023-03-01T08:31:28;4.70;;;3.40;;
7529;SDS011;3806;52.270;10.544;2023-03-01T08:33:57;6.18;;;3.80;;
7529;SDS011;3806;52.270;10.544;2023-03-01T08:36:25;4.93;;;3.38;;
7529;SDS011;3806;52.270;10.544;2023-03-01T08:38:56;6.50;;;4.20;;
7529;SDS011;3806;52.270;10.544;2023-03-01T08:41:22;8.02;;;3.75;;
7529;SDS011;3806;52.270;10.544;2023-03-01T08:43:48;6.95;;;4.30;;
7529;SDS011;3806;52.270;10.544;2023-03-01T08:46:13;4.93;;;3.50;;
7529;SDS011;3806;52.270;10.544;2023-03-01T08:48:39;5.63;;;3.47;;
7529;SDS011;3806;52.270;10.544;2023-03-01T08:51:12;5.47;;;3.70;;
7529;SDS011;3806;52.270;10.544;2023-03-01T08:53:39;4.75;;;3.08;;
7529;SDS011;3806;52.270;10.544;2023-03-01T08:56:06;4.57;;;3.78;;
7529;SDS011;3806;52.270;10.544;2023-03-01T08:58:32;6.82;;;3.97;;
7529;SDS011;3806;52.270;10.544;2023-03-01T09:00:57;5.18;;;3.00;;
7529;SDS011;3806;52.270;10.544;2023-03-01T09:03:23;7.10;;;3.90;;
7529;SDS011;3806;52.270;10.544;2023-03-01T09:05:50;5.55;;;3.20;;
7529;SDS011;3806;52.270;10.544;2023-03-01T09:08:16;4.40;;;3.08;;
7529;SDS011;3806;52.270;10.544;2023-03-01T09:10:42;5.97;;;3.03;;
7529;SDS011;3806;52.270;10.544;2023-03-01T09:13:08;4.45;;;3.10;;
7529;SDS011;3806;52.270;10.544;2023-03-01T09:15:36;4.50;;;3.40;;
7529;SDS011;3806;52.270;10.544;2023-03-01T09:18:02;3.70;;;2.80;;
7529;SDS011;3806;52.270;10.544;2023-03-01T09:20:27;5.82;;;3.35;;
7529;SDS011;3806;52.270;10.544;2023-03-01T09:22:53;4.78;;;2.95;;
7529;SDS011;3806;52.270;10.544;2023-03-01T09:25:19;4.88;;;3.20;;
7529;SDS011;3806;52.270;10.544;2023-03-01T09:27:44;5.30;;;3.30;;
7529;SDS011;3806;52.270;10.544;2023-03-01T09:30:10;6.40;;;3.10;;
7529;SDS011;3806;52.270;10.544;2023-03-01T09:32:36;6.00;;;3.50;;
7529;SDS011;3806;52.270;10.544;2023-03-01T09:35:01;5.30;;;3.08;;
7529;SDS011;3806;52.270;10.544;2023-03-01T09:37:29;4.50;;;3.03;;
7529;SDS011;3806;52.270;10.544;2023-03-01T09:39:56;4.28;;;2.80;;
7529;SDS011;3806;52.270;10.544;2023-03-01T09:42:22;5.53;;;2.83;;
7529;SDS011;3806;52.270;10.544;2023-03-01T09:44:49;6.05;;;2.85;;
7529;SDS011;3806;52.270;10.544;2023-03-01T09:47:38;4.43;;;3.20;;
7529;SDS011;3806;52.270;10.544;2023-03-01T09:50:18;4.00;;;2.85;;
7529;SDS011;3806;52.270;10.544;2023-03-01T09:55:39;4.35;;;2.88;;
7529;SDS011;3806;52.270;10.544;2023-03-01T10:00:52;4.00;;;2.72;;
7529;SDS011;3806;52.270;10.544;2023-03-01T10:03:23;5.10;;;3.25;;
7529;SDS011;3806;52.270;10.544;2023-03-01T10:05:57;4.93;;;3.10;;
7529;SDS011;3806;52.270;10.544;2023-03-01T10:08:36;5.53;;;2.85;;
7529;SDS011;3806;52.270;10.544;2023-03-01T10:11:19;4.32;;;2.72;;
7529;SDS011;3806;52.270;10.544;2023-03-01T10:16:57;4.53;;;2.80;;
7529;SDS011;3806;52.270;10.544;2023-03-01T10:19:37;4.03;;;2.92;;
7529;SDS011;3806;52.270;10.544;2023-03-01T10:22:11;5.15;;;2.75;;
7529;SDS011;3806;52.270;10.544;2023-03-01T10:24:41;4.00;;;2.60;;
7529;SDS011;3806;52.270;10.544;2023-03-01T10:27:21;5.63;;;3.20;;
7529;SDS011;3806;52.270;10.544;2023-03-01T10:30:11;4.70;;;3.08;;
7529;SDS011;3806;52.270;10.544;2023-03-01T10:32:47;5.18;;;2.35;;
7529;SDS011;3806;52.270;10.544;2023-03-01T10:38:03;4.57;;;3.20;;
7529;SDS011;3806;52.270;10.544;2023-03-01T10:40:28;5.55;;;2.70;;
7529;SDS011;3806;52.270;10.544;2023-03-01T10:42:54;5.03;;;2.85;;
7529;SDS011;3806;52.270;10.544;2023-03-01T10:45:30;3.72;;;2.50;;
7529;SDS011;3806;52.270;10.544;2023-03-01T10:48:13;3.55;;;3.05;;
7529;SDS011;3806;52.270;10.544;2023-03-01T10:50:40;4.90;;;2.80;;
7529;SDS011;3806;52.270;10.544;2023-03-01T10:53:19;3.70;;;2.33;;
7529;SDS011;3806;52.270;10.544;2023-03-01T10:58:36;5.28;;;3.00;;
7529;SDS011;3806;52.270;10.544;2023-03-01T11:01:04;4.03;;;2.83;;
7529;SDS011;3806;52.270;10.544;2023-03-01T11:04:03;5.38;;;3.00;;
7529;SDS011;3806;52.270;10.544;2023-03-01T11:06:33;4.10;;;2.88;;
7529;SDS011;3806;52.270;10.544;2023-03-01T11:11:42;3.28;;;2.53;;
7529;SDS011;3806;52.270;10.544;2023-03-01T11:14:18;3.92;;;2.60;;
7529;SDS011;3806;52.270;10.544;2023-03-01T11:16:47;4.07;;;2.63;;
7529;SDS011;3806;52.270;10.544;2023-03-01T11:19:18;4.75;;;2.53;;
7529;SDS011;3806;52.270;10.544;2023-03-01T11:24:39;4.18;;;2.72;;
7529;SDS011;3806;52.270;10.544;2023-03-01T11:27:20;7.13;;;2.65;;
7529;SDS011;3806;52.270;10.544;2023-03-01T11:29:59;4.43;;;2.78;;
7529;SDS011;3806;52.270;10.544;2023-03-01T11:32:42;3.28;;;2.38;;
7529;SDS011;3806;52.270;10.544;2023-03-01T11:46:05;2.90;;;2.40;;
7529;SDS011;3806;52.270;10.544;2023-03-01T11:48:50;4.55;;;2.13;;
7529;SDS011;3806;52.270;10.544;2023-03-01T11:51:24;3.03;;;2.13;;
7529;SDS011;3806;52.270;10.544;2023-03-01T11:54:27;3.78;;;2.65;;
7529;SDS011;3806;52.270;10.544;2023-03-01T11:57:10;4.05;;;2.50;;
7529;SDS011;3806;52.270;10.544;2023-03-01T12:05:42;4.78;;;2.92;;
7529;SDS011;3806;52.270;10.544;2023-03-01T12:08:32;4.22;;;2.80;;
7529;SDS011;3806;52.270;10.544;2023-03-01T12:14:16;4.20;;;3.00;;
7529;SDS011;3806;52.270;10.544;2023-03-01T12:20:02;3.60;;;2.15;;
7529;SDS011;3806;52.270;10.544;2023-03-01T12:25:27;5.93;;;2.97;;
7529;SDS011;3806;52.270;10.544;2023-03-01T12:28:04;3.97;;;2.70;;
7529;SDS011;3806;52.270;10.544;2023-03-01T12:36:48;5.75;;;3.13;;
7529;SDS011;3806;52.270;10.544;2023-03-01T12:42:41;7.47;;;2.95;;
7529;SDS011;3806;52.270;10.544;2023-03-01T12:45:30;5.35;;;2.63;;
7529;SDS011;3806;52.270;10.544;2023-03-01T12:50:58;4.20;;;2.60;;
7529;SDS011;3806;52.270;10.544;2023-03-01T12:55:57;4.07;;;2.65;;
7529;SDS011;3806;52.270;10.544;2023-03-01T12:58:33;4.20;;;2.80;;
7529;SDS011;3806;52.270;10.544;2023-03-01T13:01:15;4.22;;;2.65;;
7529;SDS011;3806;52.270;10.544;2023-03-01T13:04:07;5.35;;;3.35;;
7529;SDS011;3806;52.270;10.544;2023-03-01T13:09:49;5.95;;;2.92;;
7529;SDS011;3806;52.270;10.544;2023-03-01T13:17:55;6.57;;;2.90;;
7529;SDS011;3806;52.270;10.544;2023-03-01T13:20:27;5.95;;;2.85;;
7529;SDS011;3806;52.270;10.544;2023-03-01T13:44:12;4.28;;;2.60;;
7529;SDS011;3806;52.270;10.544;2023-03-01T13:46:42;3.97;;;2.20;;
7529;SDS011;3806;52.270;10.544;2023-03-01T13:49:11;4.53;;;2.70;;
7529;SDS011;3806;52.270;10.544;2023-03-01T13:51:40;4.30;;;2.40;;
7529;SDS011;3806;52.270;10.544;2023-03-01T13:54:10;5.18;;;2.67;;
7529;SDS011;3806;52.270;10.544;2023-03-01T13:56:37;5.40;;;2.60;;
7529;SDS011;3806;52.270;10.544;2023-03-01T13:59:12;4.63;;;2.60;;
7529;SDS011;3806;52.270;10.544;2023-03-01T14:01:40;8.73;;;2.95;;
7529;SDS011;3806;52.270;10.544;2023-03-01T14:07:12;5.70;;;2.70;;
7529;SDS011;3806;52.270;10.544;2023-03-01T14:09:42;4.55;;;2.55;;
7529;SDS011;3806;52.270;10.544;2023-03-01T14:12:27;4.20;;;2.35;;
7529;SDS011;3806;52.270;10.544;2023-03-01T14:14:57;4.72;;;2.95;;
7529;SDS011;3806;52.270;10.544;2023-03-01T14:20:27;4.18;;;2.28;;
7529;SDS011;3806;52.270;10.544;2023-03-01T14:22:58;4.03;;;2.22;;
7529;SDS011;3806;52.270;10.544;2023-03-01T14:25:34;3.72;;;2.40;;
7529;SDS011;3806;52.270;10.544;2023-03-01T14:30:44;4.82;;;2.35;;
7529;SDS011;3806;52.270;10.544;2023-03-01T14:35:57;5.53;;;2.30;;
7529;SDS011;3806;52.270;10.544;2023-03-01T14:38:32;6.82;;;2.47;;
7529;SDS011;3806;52.270;10.544;2023-03-01T14:41:03;4.88;;;1.90;;
7529;SDS011;3806;52.270;10.544;2023-03-01T14:43:35;4.75;;;2.45;;
7529;SDS011;3806;52.270;10.544;2023-03-01T14:46:02;4.65;;;2.22;;
7529;SDS011;3806;52.270;10.544;2023-03-01T14:48:28;3.75;;;2.17;;
7529;SDS011;3806;52.270;10.544;2023-03-01T14:50:56;3.85;;;2.30;;
7529;SDS011;3806;52.270;10.544;2023-03-01T14:53:24;5.10;;;2.15;;
7529;SDS011;3806;52.270;10.544;2023-03-01T14:55:54;6.10;;;2.38;;
7529;SDS011;3806;52.270;10.544;2023-03-01T14:58:23;3.22;;;1.92;;
7529;SDS011;3806;52.270;10.544;2023-03-01T15:00:53;3.63;;;1.90;;
7529;SDS011;3806;52.270;10.544;2023-03-01T15:03:38;3.40;;;2.30;;
7529;SDS011;3806;52.270;10.544;2023-03-01T15:06:08;4.18;;;2.17;;
7529;SDS011;3806;52.270;10.544;2023-03-01T15:08:36;4.10;;;2.30;;
7529;SDS011;3806;52.270;10.544;2023-03-01T15:13:50;3.75;;;1.98;;
7529;SDS011;3806;52.270;10.544;2023-03-01T15:16:17;4.68;;;2.00;;
7529;SDS011;3806;52.270;10.544;2023-03-01T15:18:54;5.25;;;2.30;;
7529;SDS011;3806;52.270;10.544;2023-03-01T15:21:23;2.63;;;1.60;;
7529;SDS011;3806;52.270;10.544;2023-03-01T15:23:55;2.58;;;1.70;;
7529;SDS011;3806;52.270;10.544;2023-03-01T15:26:36;4.57;;;2.05;;
7529;SDS011;3806;52.270;10.544;2023-03-01T15:29:10;2.88;;;1.95;;
7529;SDS011;3806;52.270;10.544;2023-03-01T15:31:59;3.70;;;1.90;;
7529;SDS011;3806;52.270;10.544;2023-03-01T15:40:22;5.43;;;2.38;;
7529;SDS011;3806;52.270;10.544;2023-03-01T15:42:56;5.18;;;2.15;;
7529;SDS011;3806;52.270;10.544;2023-03-01T15:45:29;3.10;;;1.73;;
7529;SDS011;3806;52.270;10.544;2023-03-01T15:48:02;3.05;;;2.00;;
7529;SDS011;3806;52.270;10.544;2023-03-01T15:50:34;3.63;;;1.80;;
7529;SDS011;3806;52.270;10.544;2023-03-01T15:53:05;2.78;;;1.65;;
7529;SDS011;3806;52.270;10.544;2023-03-01T15:55:37;4.82;;;2.67;;
7529;SDS011;3806;52.270;10.544;2023-03-01T16:00:32;4.88;;;2.28;;
7529;SDS011;3806;52.270;10.544;2023-03-01T16:02:58;3.95;;;1.90;;
7529;SDS011;3806;52.270;10.544;2023-03-01T16:05:25;2.72;;;1.90;;
7529;SDS011;3806;52.270;10.544;2023-03-01T16:07:53;2.88;;;1.80;;
7529;SDS011;3806;52.270;10.544;2023-03-01T16:10:20;2.58;;;1.73;;
7529;SDS011;3806;52.270;10.544;2023-03-01T16:12:47;5.10;;;2.13;;
7529;SDS011;3806;52.270;10.544;2023-03-01T16:15:14;3.20;;;2.08;;
7529;SDS011;3806;52.270;10.544;2023-03-01T16:17:43;5.35;;;2.28;;
7529;SDS011;3806;52.270;10.544;2023-03-01T16:20:09;4.40;;;2.25;;
7529;SDS011;3806;52.270;10.544;2023-03-01T16:22:36;3.47;;;1.73;;
7529;SDS011;3806;52.270;10.544;2023-03-01T16:25:01;3.70;;;2.03;;
7529;SDS011;3806;52.270;10.544;2023-03-01T16:27:27;4.57;;;1.90;;
7529;SDS011;3806;52.270;10.544;2023-03-01T16:29:54;4.28;;;2.10;;
7529;SDS011;3806;52.270;10.544;2023-03-01T16:32:20;3.25;;;2.13;;
7529;SDS011;3806;52.270;10.544;2023-03-01T16:34:45;4.78;;;1.90;;
7529;SDS011;3806;52.270;10.544;2023-03-01T16:37:14;3.15;;;2.15;;
7529;SDS011;3806;52.270;10.544;2023-03-01T16:39:41;4.68;;;1.85;;
7529;SDS011;3806;52.270;10.544;2023-03-01T16:42:07;2.80;;;1.60;;
7529;SDS011;3806;52.270;10.544;2023-03-01T16:44:32;3.63;;;2.00;;
7529;SDS011;3806;52.270;10.544;2023-03-01T16:46:58;4.88;;;2.47;;
7529;SDS011;3806;52.270;10.544;2023-03-01T16:49:23;4.00;;;2.08;;
7529;SDS011;3806;52.270;10.544;2023-03-01T16:51:49;3.15;;;1.85;;
7529;SDS011;3806;52.270;10.544;2023-03-01T16:54:14;3.08;;;2.00;;
7529;SDS011;3806;52.270;10.544;2023-03-01T16:56:40;6.78;;;1.80;;
7529;SDS011;3806;52.270;10.544;2023-03-01T16:59:06;3.50;;;2.03;;
7529;SDS011;3806;52.270;10.544;2023-03-01T17:01:33;3.75;;;1.92;;
7529;SDS011;3806;52.270;10.544;2023-03-01T17:03:59;3.90;;;2.03;;
7529;SDS011;3806;52.270;10.544;2023-03-01T17:06:25;3.60;;;2.33;;
7529;SDS011;3806;52.270;10.544;2023-03-01T17:08:52;6.50;;;2.05;;
7529;SDS011;3806;52.270;10.544;2023-03-01T17:11:18;3.58;;;1.92;;
7529;SDS011;3806;52.270;10.544;2023-03-01T17:13:45;3.78;;;2.28;;
7529;SDS011;3806;52.270;10.544;2023-03-01T17:16:13;3.67;;;2.25;;
7529;SDS011;3806;52.270;10.544;2023-03-01T17:18:41;3.88;;;2.00;;